Terminal Aerodrome Forecast
Issued by NWS Wilmington, OH

Current Version | Previous Version | Graphics & Text | Print | Product List | Glossary On
Versions: 1 2 3 4 5 6 7 8 9 10 11 12 13 14 15 16 17
687
FTUS41 KILN 200358 AAA
TAFDAY
TAF AMD
KDAY 200358Z 2004/2024 21016G22KT P6SM FEW120 BKN250 WS020/24040KT
     FM200900 22012KT P6SM BKN250
     FM201700 23014G23KT P6SM BKN025=

USA.gov is the U.S. government's official web portal to all federal, state and local government web resources and services.